Pompano Beach, FL (33067)

11:20 AM EDT on August 30, 2016 (GMT -0400)
Amateur Radio AB4YB | | Change Station

Elev 27 ft 26.33 °N, 80.22 °W | Updated 4 seconds ago

Mostly Cloudy
Mostly Cloudy
84.0 °F
Feels Like 87 °F
N
5.0
Wind Variable Wind from SE
Gusts 5.0 mph

Today
High -- | Low -- °F
--% Chance of Precip.
Yesterday
High -- | Low -- °F
Precip. -- in
Pressure 29.96 in
Visibility 10.0 miles
Clouds Scattered Clouds 1900 ft
Scattered Clouds 3500 ft
Mostly Cloudy 14000 ft
Heat Index 87 °F
Dew Point 68 °F
Humidity 58%
Rainfall 0.00 in
Snow Depth Not available.
7:00 AM 7:42 PM
Waning Crescent, 3% visible
METAR KPMP 301453Z 12013KT 10SM SCT019 SCT035 BKN140 27/23 A2996 RMK AO2 SLP146 T02670233 51015
Pressure 29.96 in
Visibility 10.0 miles
Clouds Scattered Clouds 1900 ft
Scattered Clouds 3500 ft
Mostly Cloudy 14000 ft
Heat Index 87 °F
Dew Point 68 °F
Humidity 58%
Rainfall 0.00 in
Snow Depth Not available.
7:00 AM 7:42 PM
Waning Crescent, 3% visible
METAR KPMP 301453Z 12013KT 10SM SCT019 SCT035 BKN140 27/23 A2996 RMK AO2 SLP146 T02670233 51015

10-Day Weather Forecast

Almanac

Astronomy

Aug. 30, 2016 Rise Set
Actual Time
Civil Twilight
Nautical Twilight
Astronomical Twilight
Moon
Length of Visible Light
Length of Day
Tomorrow will be .
, % of the Moon is Illuminated

Today's Extremes

State Highs State Lows

Community

WunderPhotos

Upload Photos

1,935,855 photos uploaded!

WunderBlog® & News

Nearby

Air Quality

  Air Quality AQ Index Pollutant
Not available.

Snow Depth

Station Depth Elevation

Earthquake Activity

City Distance Mag. Time & Date
Minimum magnitude displayed is 2.5.

Coastal Water Temperatures

Place Temperature

Stations

Nearby Weather Stations

Station Location Temp. Windchill Dew Point Humidity Wind Precip. Elev Updated Type
                   

Watches & Warnings

There are currently no watches in effect.